Time;durP1;ratioP1;P1;durP2;ratioP2;P2;SDS_P1;SDS_P2;PMS_P1;PMS_P2;Temp;Humidity;BMP_temperature;BMP_pressure;BME280_temperature;BME280_humidity;BME280_pressure;Samples;Min_cycle;Max_cycle;Signal;HPM_P1;HPM_P2
2021/12/05 00:19:00;;;;;;;10.87;9.73;;;2.50;99.90;;;;;;5064490;28;20253;-73
2021/12/05 00:21:42;;;;;;;10.90;9.80;;;2.50;99.90;;;;;;5044790;28;20200;-72
2021/12/05 00:24:14;;;;;;;11.40;10.20;;;2.50;99.90;;;;;;5064852;28;20187;-72
2021/12/05 00:26:47;;;;;;;10.60;9.50;;;2.50;99.90;;;;;;5084209;28;20721;-71
2021/12/05 00:29:22;;;;;;;14.13;10.57;;;2.50;99.90;;;;;;5084809;28;20581;-71
2021/12/05 00:31:57;;;;;;;11.47;10.37;;;2.50;99.90;;;;;;5063313;28;20211;-71
2021/12/05 00:34:52;;;;;;;11.33;10.07;;;2.40;99.90;;;;;;5061568;28;20199;-70
2021/12/05 00:48:58;;;;;;;11.57;10.33;;;2.40;99.90;;;;;;5036392;28;20227;-72
2021/12/05 01:00:13;;;;;;;11.77;10.57;;;2.40;99.90;;;;;;5074838;28;20277;-72
2021/12/05 01:11:11;;;;;;;12.20;10.90;;;2.40;99.90;;;;;;5061047;28;20582;-71
2021/12/05 01:13:45;;;;;;;13.17;10.73;;;2.40;99.90;;;;;;5048580;28;20264;-71
2021/12/05 01:16:18;;;;;;;13.20;11.20;;;2.30;99.90;;;;;;5043467;28;20374;-70
2021/12/05 01:18:45;;;;;;;12.27;10.83;;;2.40;99.90;;;;;;5050164;28;20196;-71
2021/12/05 01:21:16;;;;;;;12.17;10.70;;;2.40;99.90;;;;;;5061864;28;20710;-72
2021/12/05 01:23:53;;;;;;;12.27;10.27;;;2.40;99.90;;;;;;5049668;28;20207;-72
2021/12/05 01:26:24;;;;;;;12.63;11.03;;;2.30;99.90;;;;;;5048546;28;20554;-72
2021/12/05 01:29:00;;;;;;;13.33;10.33;;;2.40;99.90;;;;;;5050063;28;20188;-72
2021/12/05 01:31:38;;;;;;;12.07;10.77;;;2.40;99.90;;;;;;5050108;28;20565;-73
2021/12/05 01:34:16;;;;;;;12.43;10.57;;;2.30;99.90;;;;;;5042642;28;20196;-72
2021/12/05 01:36:54;;;;;;;11.90;10.60;;;2.40;99.90;;;;;;5049496;28;20195;-73
2021/12/05 01:39:34;;;;;;;11.50;9.83;;;2.40;99.90;;;;;;5037564;28;20208;-72
2021/12/05 01:42:46;;;;;;;11.67;10.47;;;2.40;99.90;;;;;;5030034;28;20762;-72
2021/12/05 01:45:39;;;;;;;12.17;10.40;;;2.40;99.90;;;;;;5043252;28;20219;-72
2021/12/05 01:56:54;;;;;;;11.60;10.33;;;2.30;99.90;;;;;;5048347;28;20244;-72
2021/12/05 01:59:28;;;;;;;11.40;10.20;;;2.30;99.90;;;;;;5049612;28;20718;-72
2021/12/05 02:15:59;;;;;;;11.10;10.00;;;2.30;99.90;;;;;;5064927;28;20226;-73
2021/12/05 02:30:05;;;;;;;10.20;9.20;;;2.20;99.90;;;;;;5046164;28;20230;-72
2021/12/05 02:35:25;;;;;;;12.27;10.97;;;2.20;99.90;;;;;;5055173;28;21014;-72
2021/12/05 02:38:13;;;;;;;11.33;10.13;;;2.10;99.90;;;;;;5049163;28;20313;-73
2021/12/05 02:40:59;;;;;;;12.70;10.40;;;2.20;99.90;;;;;;5065375;28;20291;-72
2021/12/05 02:43:30;;;;;;;11.53;10.33;;;2.20;99.90;;;;;;5069120;28;20227;-73
2021/12/05 02:45:59;;;;;;;11.03;9.93;;;2.20;99.90;;;;;;5051425;28;20202;-72
2021/12/05 02:48:28;;;;;;;11.93;10.23;;;2.20;99.90;;;;;;5055354;28;20261;-72
2021/12/05 02:50:56;;;;;;;12.10;10.37;;;2.30;99.90;;;;;;5053133;28;20200;-72
2021/12/05 02:53:33;;;;;;;12.10;10.77;;;2.30;99.90;;;;;;5064801;28;20555;-72
2021/12/05 02:56:01;;;;;;;12.13;10.47;;;2.30;99.90;;;;;;5052038;28;20250;-72
2021/12/05 02:58:33;;;;;;;13.00;11.07;;;2.30;99.90;;;;;;5057557;28;21022;-72
2021/12/05 03:01:10;;;;;;;13.07;10.97;;;2.30;99.90;;;;;;5068662;28;20192;-72
2021/12/05 03:03:37;;;;;;;11.43;10.23;;;2.30;99.90;;;;;;5064204;28;20231;-72
2021/12/05 03:06:16;;;;;;;11.33;10.13;;;2.30;99.90;;;;;;5055854;28;20254;-72
2021/12/05 03:08:45;;;;;;;12.50;10.70;;;2.30;99.90;;;;;;5058066;28;20261;-72
2021/12/05 03:11:12;;;;;;;11.33;10.20;;;2.30;99.90;;;;;;5037796;28;20216;-72
2021/12/05 03:13:41;;;;;;;11.20;10.13;;;2.30;99.90;;;;;;5057720;28;20253;-72
2021/12/05 03:16:10;;;;;;;11.33;10.13;;;2.30;99.90;;;;;;5048076;28;20287;-72
2021/12/05 03:18:36;;;;;;;11.20;10.00;;;2.30;99.90;;;;;;5048592;28;20196;-72
2021/12/05 03:21:07;;;;;;;11.30;10.20;;;2.30;99.90;;;;;;5048026;28;20707;-72
2021/12/05 03:23:34;;;;;;;11.97;10.80;;;2.30;99.90;;;;;;5048117;28;20301;-72
2021/12/05 03:26:05;;;;;;;11.20;10.07;;;2.30;99.90;;;;;;5048119;28;20212;-72
2021/12/05 03:28:32;;;;;;;13.63;10.63;;;2.30;99.90;;;;;;5058481;28;20195;-72
2021/12/05 03:30:59;;;;;;;12.10;10.47;;;2.30;99.90;;;;;;5054189;28;20600;-72
2021/12/05 03:33:26;;;;;;;12.67;11.17;;;2.30;99.90;;;;;;5047767;28;20228;-72
2021/12/05 03:35:52;;;;;;;12.93;11.10;;;2.30;99.90;;;;;;5048277;28;20211;-72
2021/12/05 03:38:19;;;;;;;12.07;10.77;;;2.20;99.90;;;;;;5055405;28;20253;-72
2021/12/05 03:40:46;;;;;;;12.20;10.83;;;2.30;99.90;;;;;;5053800;28;20246;-72
2021/12/05 03:43:17;;;;;;;12.00;10.80;;;2.30;99.90;;;;;;5048067;28;20243;-72
2021/12/05 03:45:47;;;;;;;12.60;11.10;;;2.30;99.90;;;;;;5050788;28;20191;-72
2021/12/05 03:48:14;;;;;;;12.70;11.17;;;2.30;99.90;;;;;;5047732;28;20700;-72
2021/12/05 03:50:42;;;;;;;11.37;10.23;;;2.30;99.90;;;;;;5048784;28;20204;-72
2021/12/05 03:53:10;;;;;;;11.93;10.70;;;2.30;99.90;;;;;;5048388;28;20240;-72
2021/12/05 03:55:41;;;;;;;11.70;10.50;;;2.30;99.90;;;;;;5048335;28;20686;-72
2021/12/05 03:58:08;;;;;;;12.73;10.97;;;2.40;99.90;;;;;;5051386;28;20192;-72
2021/12/05 04:00:39;;;;;;;12.70;10.90;;;2.40;99.90;;;;;;5047819;28;20277;-71
2021/12/05 04:03:08;;;;;;;13.60;11.33;;;2.40;99.90;;;;;;5052696;28;20191;-72
2021/12/05 04:05:35;;;;;;;12.57;11.27;;;2.40;99.90;;;;;;5049827;28;20207;-72
2021/12/05 04:08:06;;;;;;;13.27;11.07;;;2.40;99.90;;;;;;5052898;28;20221;-72
2021/12/05 04:10:32;;;;;;;13.00;11.63;;;2.40;99.90;;;;;;5058089;28;20196;-71
2021/12/05 04:12:59;;;;;;;13.80;11.17;;;2.40;99.90;;;;;;5048941;28;20795;-72
2021/12/05 04:15:26;;;;;;;13.10;11.27;;;2.40;99.90;;;;;;5050671;28;20209;-72
2021/12/05 04:17:55;;;;;;;12.57;10.93;;;2.40;99.90;;;;;;5049699;28;20238;-72
2021/12/05 04:20:22;;;;;;;12.70;11.33;;;2.40;99.90;;;;;;5056621;28;20265;-72
2021/12/05 04:22:50;;;;;;;12.53;10.80;;;2.40;99.90;;;;;;5050847;28;20200;-71
2021/12/05 04:25:19;;;;;;;12.17;10.97;;;2.40;99.90;;;;;;5050848;28;21063;-72
2021/12/05 04:27:47;;;;;;;13.50;11.40;;;2.40;99.90;;;;;;5048030;28;20215;-71
2021/12/05 04:30:17;;;;;;;12.77;11.47;;;2.40;99.90;;;;;;5048365;28;20230;-71
2021/12/05 04:32:44;;;;;;;13.47;11.50;;;2.40;99.90;;;;;;5047478;28;20220;-71
2021/12/05 04:35:12;;;;;;;12.40;10.87;;;2.40;99.90;;;;;;5047003;28;20201;-71
2021/12/05 04:37:39;;;;;;;12.57;11.23;;;2.40;99.90;;;;;;5047658;28;20201;-70
2021/12/05 04:40:08;;;;;;;12.90;10.73;;;2.40;99.90;;;;;;5063923;28;20969;-73
2021/12/05 04:42:35;;;;;;;12.67;10.97;;;2.40;99.90;;;;;;5062846;28;20223;-71
2021/12/05 04:45:02;;;;;;;13.07;11.40;;;2.40;99.90;;;;;;5055603;28;20658;-71
2021/12/05 04:47:29;;;;;;;13.67;11.00;;;2.40;99.90;;;;;;5069214;28;20237;-72
2021/12/05 04:49:56;;;;;;;14.27;11.23;;;2.40;99.90;;;;;;5051379;28;20199;-72
2021/12/05 04:52:24;;;;;;;14.53;12.00;;;2.40;99.90;;;;;;5050581;28;20240;-72
2021/12/05 04:54:51;;;;;;;13.97;11.03;;;2.40;99.90;;;;;;5055920;28;20204;-72
2021/12/05 04:57:17;;;;;;;12.90;11.10;;;2.40;99.90;;;;;;5067179;28;20211;-72
2021/12/05 04:59:49;;;;;;;13.40;12.00;;;2.40;99.90;;;;;;5055424;28;20270;-72
2021/12/05 05:02:16;;;;;;;12.93;11.53;;;2.40;99.90;;;;;;5060436;28;20193;-73
2021/12/05 05:04:46;;;;;;;13.83;12.07;;;2.40;99.90;;;;;;5053105;28;20204;-73
2021/12/05 05:07:20;;;;;;;12.97;11.67;;;2.40;99.90;;;;;;5050737;28;20207;-72
2021/12/05 05:09:50;;;;;;;14.00;12.20;;;2.50;99.90;;;;;;5044140;28;20634;-70
2021/12/05 05:12:18;;;;;;;15.37;12.70;;;2.40;99.90;;;;;;5065326;28;20208;-71
2021/12/05 05:14:44;;;;;;;14.83;12.50;;;2.40;99.90;;;;;;5058947;28;20201;-71
2021/12/05 05:17:11;;;;;;;14.90;12.37;;;2.40;99.90;;;;;;5048618;28;20246;-71
2021/12/05 05:19:40;;;;;;;14.80;11.90;;;2.50;99.90;;;;;;5050807;28;20203;-71
2021/12/05 05:22:17;;;;;;;14.40;12.23;;;2.50;99.90;;;;;;5057310;28;20216;-72
2021/12/05 05:25:13;;;;;;;14.00;11.93;;;2.40;99.90;;;;;;5057910;28;20258;-72
2021/12/05 05:39:38;;;;;;;15.20;12.73;;;2.40;99.90;;;;;;5002132;28;20209;-72
2021/12/05 05:45:17;;;;;;;15.73;12.07;;;2.40;99.90;;;;;;4987842;28;20202;-71
2021/12/05 05:47:58;;;;;;;16.03;13.30;;;2.40;99.90;;;;;;5006957;28;20205;-71
2021/12/05 05:50:25;;;;;;;16.37;13.43;;;2.40;99.90;;;;;;5049717;28;20216;-71
2021/12/05 05:52:52;;;;;;;18.33;13.77;;;2.40;99.90;;;;;;5049241;28;20236;-72
2021/12/05 05:55:19;;;;;;;18.37;13.87;;;2.40;99.90;;;;;;5052273;28;20192;-71
2021/12/05 05:57:47;;;;;;;16.30;13.17;;;2.40;99.90;;;;;;5054916;28;20685;-71
2021/12/05 06:00:28;;;;;;;14.90;12.77;;;2.40;99.90;;;;;;5055029;28;20211;-71
2021/12/05 06:05:39;;;;;;;17.33;13.80;;;2.40;99.90;;;;;;5050120;28;20199;-71
2021/12/05 06:08:06;;;;;;;18.30;14.20;;;2.40;99.90;;;;;;5049148;28;20663;-72
2021/12/05 06:10:33;;;;;;;18.80;14.10;;;2.40;99.90;;;;;;5059844;28;20198;-71
2021/12/05 06:13:00;;;;;;;17.83;13.70;;;2.40;99.90;;;;;;5051564;28;20228;-71
2021/12/05 06:15:30;;;;;;;19.03;14.03;;;2.40;99.90;;;;;;5049913;28;20216;-72
2021/12/05 06:17:57;;;;;;;20.63;15.33;;;2.30;99.90;;;;;;5056800;28;20210;-73
2021/12/05 06:20:27;;;;;;;17.23;14.13;;;2.40;99.90;;;;;;5048557;28;20694;-73
2021/12/05 06:22:54;;;;;;;18.53;13.70;;;2.40;99.90;;;;;;5048993;28;20714;-72
2021/12/05 06:25:24;;;;;;;18.40;13.30;;;2.40;99.90;;;;;;5050188;28;20215;-72
2021/12/05 06:27:53;;;;;;;19.67;15.10;;;2.40;99.90;;;;;;5049423;28;20279;-71
2021/12/05 06:30:32;;;;;;;21.80;14.70;;;2.40;99.90;;;;;;5065082;28;20245;-71
2021/12/05 06:41:22;;;;;;;22.73;15.47;;;2.40;99.90;;;;;;5053696;28;20215;-72
2021/12/05 06:46:35;;;;;;;25.87;15.23;;;2.40;99.90;;;;;;5056543;28;20364;-72
2021/12/05 06:49:03;;;;;;;25.13;15.60;;;2.40;99.90;;;;;;5048263;28;20206;-72
2021/12/05 06:51:30;;;;;;;23.97;14.70;;;2.40;99.90;;;;;;5053328;28;20273;-72
2021/12/05 06:53:58;;;;;;;30.43;16.83;;;2.40;99.90;;;;;;5050891;28;20745;-72
2021/12/05 06:56:26;;;;;;;26.03;16.07;;;2.40;99.90;;;;;;5052717;28;20207;-72
2021/12/05 06:58:53;;;;;;;24.70;16.60;;;2.40;99.90;;;;;;5048272;28;20271;-73
2021/12/05 07:01:21;;;;;;;27.77;17.30;;;2.40;99.90;;;;;;5049103;28;20200;-73
2021/12/05 07:03:49;;;;;;;25.77;18.97;;;2.40;99.90;;;;;;5048759;28;20740;-72
2021/12/05 07:06:22;;;;;;;28.23;18.53;;;2.40;99.90;;;;;;5048450;28;20204;-72
2021/12/05 07:08:51;;;;;;;27.67;19.27;;;2.30;99.90;;;;;;5056599;28;20189;-72
2021/12/05 07:11:22;;;;;;;28.50;19.27;;;2.30;99.90;;;;;;5049876;28;20204;-72
2021/12/05 07:14:24;;;;;;;28.90;18.57;;;2.40;99.90;;;;;;5054192;28;20235;-72
2021/12/05 07:16:54;;;;;;;26.57;17.77;;;2.40;99.90;;;;;;5047373;28;20755;-72
2021/12/05 07:19:32;;;;;;;27.83;19.00;;;2.30;99.90;;;;;;5050051;28;20204;-72
2021/12/05 07:22:10;;;;;;;27.47;18.53;;;2.30;99.90;;;;;;5049422;28;20192;-71
2021/12/05 07:24:44;;;;;;;33.37;19.13;;;2.30;99.90;;;;;;5049777;28;20659;-72
2021/12/05 07:40:56;;;;;;;29.43;19.93;;;2.20;99.90;;;;;;5061379;28;20262;-72
2021/12/05 07:43:24;;;;;;;31.23;19.27;;;2.20;99.90;;;;;;5049526;28;20266;-73
2021/12/05 07:45:55;;;;;;;31.33;20.13;;;2.20;99.90;;;;;;5047905;28;20196;-73
2021/12/05 07:48:26;;;;;;;32.93;20.53;;;2.30;99.90;;;;;;5051238;28;20250;-73
2021/12/05 07:51:04;;;;;;;32.50;20.80;;;2.30;99.90;;;;;;5049827;28;20242;-72
2021/12/05 07:53:39;;;;;;;33.30;20.27;;;2.30;99.90;;;;;;5063072;28;20218;-72
2021/12/05 07:56:12;;;;;;;32.43;20.37;;;2.40;99.90;;;;;;5047588;28;20739;-72
2021/12/05 07:58:57;;;;;;;30.53;20.50;;;2.40;99.90;;;;;;5067300;28;20581;-73
2021/12/05 08:15:13;;;;;;;35.30;21.67;;;2.60;99.90;;;;;;5050288;28;20732;-72
2021/12/05 08:17:40;;;;;;;33.50;21.97;;;2.60;99.90;;;;;;5052748;28;20196;-72
2021/12/05 08:20:11;;;;;;;37.07;21.63;;;2.50;99.90;;;;;;5046165;28;20248;-72
2021/12/05 08:22:38;;;;;;;32.73;21.20;;;2.50;99.90;;;;;;5047516;28;20303;-72
2021/12/05 08:25:12;;;;;;;34.97;21.97;;;2.50;99.90;;;;;;5048940;28;20266;-73
2021/12/05 08:27:42;;;;;;;38.17;21.87;;;2.50;99.90;;;;;;5048843;28;20184;-72
2021/12/05 08:30:15;;;;;;;32.27;20.90;;;2.50;99.90;;;;;;5049235;28;20200;-73
2021/12/05 08:32:56;;;;;;;37.73;21.87;;;2.50;99.90;;;;;;5050615;28;20246;-74
2021/12/05 08:35:43;;;;;;;35.53;22.40;;;2.50;99.90;;;;;;5050559;28;20215;-73
2021/12/05 08:41:28;;;;;;;34.57;21.37;;;2.40;99.90;;;;;;5046744;28;20701;-73
2021/12/05 08:44:26;;;;;;;32.80;20.80;;;2.40;99.90;;;;;;5047594;28;20208;-72
2021/12/05 09:29:02;;;;;;;38.77;21.30;;;2.50;99.90;;;;;;5049607;28;20239;-72
2021/12/05 09:40:26;;;;;;;38.53;21.67;;;2.60;99.90;;;;;;5038366;28;20231;-72
2021/12/05 09:51:37;;;;;;;38.63;22.37;;;2.50;99.90;;;;;;5049048;28;20200;-73
2021/12/05 10:02:38;;;;;;;36.57;21.00;;;2.60;99.90;;;;;;5049001;28;20211;-76
2021/12/05 10:08:20;;;;;;;39.37;21.57;;;2.60;99.90;;;;;;5029595;28;20242;-72
2021/12/05 10:11:03;;;;;;;38.60;23.20;;;2.60;99.90;;;;;;5042785;28;20250;-72
2021/12/05 10:13:38;;;;;;;36.67;22.97;;;2.60;99.90;;;;;;5044291;28;20218;-71
2021/12/05 10:16:18;;;;;;;36.03;22.03;;;2.60;99.90;;;;;;5048856;28;20199;-71
2021/12/05 10:19:28;;;;;;;39.97;22.53;;;2.70;99.90;;;;;;5046161;28;20315;-70
2021/12/05 10:36:06;;;;;;;42.17;23.40;;;2.70;99.90;;;;;;4999440;28;20241;-70
2021/12/05 10:38:42;;;;;;;41.87;23.80;;;2.70;99.90;;;;;;5020602;28;20303;-70
2021/12/05 10:41:23;;;;;;;39.10;23.00;;;2.60;99.90;;;;;;5044178;28;21141;-70
2021/12/05 10:43:52;;;;;;;38.17;21.97;;;2.70;99.90;;;;;;5043108;28;20213;-70
2021/12/05 10:46:21;;;;;;;41.13;22.73;;;2.70;99.90;;;;;;5042747;28;20625;-70
2021/12/05 10:48:50;;;;;;;43.40;23.73;;;2.80;99.90;;;;;;5043689;28;20590;-71
2021/12/05 10:51:20;;;;;;;40.40;23.67;;;2.70;99.90;;;;;;5044582;28;20204;-71
2021/12/05 10:53:49;;;;;;;39.47;22.27;;;2.80;99.90;;;;;;5043607;28;20676;-71
2021/12/05 10:56:22;;;;;;;31.10;20.33;;;2.80;99.90;;;;;;5045120;28;20211;-71
2021/12/05 10:58:56;;;;;;;35.63;21.43;;;2.80;99.90;;;;;;5045018;28;20567;-71
2021/12/05 11:01:31;;;;;;;34.97;20.70;;;2.80;99.90;;;;;;5045140;28;20200;-71
2021/12/05 11:03:59;;;;;;;34.73;20.63;;;2.70;99.90;;;;;;5045374;28;20200;-71
2021/12/05 11:06:33;;;;;;;34.40;21.40;;;2.80;99.90;;;;;;5045153;28;20212;-71
2021/12/05 11:09:06;;;;;;;36.00;21.83;;;2.80;99.90;;;;;;5044771;28;20231;-71
2021/12/05 11:11:35;;;;;;;37.93;23.10;;;2.80;99.90;;;;;;5044905;28;20194;-72
2021/12/05 11:14:03;;;;;;;40.53;22.10;;;2.80;99.90;;;;;;5044788;28;20281;-70
2021/12/05 11:16:50;;;;;;;35.87;21.57;;;2.90;99.90;;;;;;5044444;28;20303;-70
2021/12/05 11:19:26;;;;;;;38.20;22.27;;;2.80;99.90;;;;;;5044219;28;20231;-71
2021/12/05 11:22:05;;;;;;;34.07;20.57;;;2.90;99.90;;;;;;5044461;28;20231;-71
2021/12/05 11:24:36;;;;;;;36.77;21.63;;;2.90;99.90;;;;;;5044719;28;20196;-71
2021/12/05 11:27:26;;;;;;;42.63;23.83;;;2.80;99.90;;;;;;5044833;28;20199;-71
2021/12/05 11:29:59;;;;;;;39.40;23.33;;;2.80;99.90;;;;;;5045253;28;20209;-70
2021/12/05 11:32:35;;;;;;;42.20;22.30;;;2.80;99.90;;;;;;5045143;28;20196;-71
2021/12/05 11:35:22;;;;;;;38.80;22.13;;;2.80;99.90;;;;;;5044391;28;20322;-70
2021/12/05 11:37:52;;;;;;;37.70;21.20;;;2.80;99.90;;;;;;5044472;28;20288;-70
2021/12/05 11:40:21;;;;;;;41.50;23.80;;;2.80;99.90;;;;;;5044616;28;20354;-71
2021/12/05 11:42:53;;;;;;;41.47;22.93;;;2.80;99.90;;;;;;5044374;28;20204;-71
2021/12/05 11:45:20;;;;;;;41.97;23.67;;;2.80;99.90;;;;;;5044333;28;20375;-71
2021/12/05 11:47:46;;;;;;;40.20;23.10;;;2.70;99.90;;;;;;5044326;28;20607;-71
2021/12/05 11:50:13;;;;;;;36.13;22.17;;;2.70;99.90;;;;;;5044481;28;20222;-70
2021/12/05 11:52:41;;;;;;;40.53;22.87;;;2.70;99.90;;;;;;5043640;28;20653;-70
2021/12/05 11:55:19;;;;;;;39.67;24.33;;;2.80;99.90;;;;;;5044006;28;20235;-70
2021/12/05 11:57:47;;;;;;;38.23;22.20;;;2.80;99.90;;;;;;5043763;28;20305;-71
2021/12/05 12:00:17;;;;;;;36.60;22.20;;;2.80;99.90;;;;;;5043376;28;20207;-70
2021/12/05 12:02:46;;;;;;;39.63;22.67;;;2.80;99.90;;;;;;5044269;28;20196;-70
2021/12/05 12:05:18;;;;;;;37.00;23.10;;;2.80;99.90;;;;;;5043971;28;20211;-71
2021/12/05 12:07:47;;;;;;;39.47;22.50;;;2.80;99.90;;;;;;5044319;28;20279;-71
2021/12/05 12:10:18;;;;;;;41.00;23.17;;;2.80;99.90;;;;;;5043735;28;20220;-70
2021/12/05 12:12:49;;;;;;;43.10;23.97;;;2.70;99.90;;;;;;5044059;28;20901;-70
2021/12/05 12:15:16;;;;;;;39.83;22.83;;;2.80;99.90;;;;;;5044129;28;20228;-71
2021/12/05 12:17:44;;;;;;;39.80;21.80;;;2.80;99.90;;;;;;5044393;28;20675;-70
2021/12/05 12:20:16;;;;;;;40.27;23.13;;;2.80;99.90;;;;;;5043657;28;20678;-70
2021/12/05 12:22:44;;;;;;;44.33;24.40;;;2.80;99.90;;;;;;5043668;28;20239;-70
2021/12/05 12:25:17;;;;;;;38.93;23.77;;;2.80;99.90;;;;;;5044033;28;20212;-71
2021/12/05 12:27:45;;;;;;;35.83;23.30;;;2.90;99.90;;;;;;5044589;28;20208;-71
2021/12/05 12:30:18;;;;;;;32.67;21.87;;;2.90;99.90;;;;;;5047207;28;20204;-71
2021/12/05 12:32:49;;;;;;;34.27;22.00;;;2.90;99.90;;;;;;5047244;28;20188;-71
2021/12/05 12:35:19;;;;;;;33.50;22.13;;;2.90;99.90;;;;;;5047069;28;20220;-71
2021/12/05 12:37:59;;;;;;;33.70;21.93;;;2.90;99.90;;;;;;5047332;28;20639;-70
2021/12/05 12:40:34;;;;;;;32.60;21.40;;;2.90;99.90;;;;;;5047177;28;20723;-70
2021/12/05 12:43:00;;;;;;;32.47;20.67;;;2.90;99.90;;;;;;5047267;28;20203;-69
2021/12/05 12:45:28;;;;;;;33.67;21.50;;;2.90;99.90;;;;;;5047302;28;20265;-70
2021/12/05 12:47:58;;;;;;;31.67;21.07;;;2.90;99.90;;;;;;5047383;28;20200;-70
2021/12/05 12:50:34;;;;;;;31.80;20.83;;;2.90;99.90;;;;;;5047356;28;20204;-70
2021/12/05 12:53:17;;;;;;;31.37;20.47;;;2.90;99.90;;;;;;5046789;28;20231;-70
2021/12/05 12:55:51;;;;;;;31.30;20.77;;;2.90;99.90;;;;;;5047086;28;20774;-70
2021/12/05 12:58:34;;;;;;;35.07;22.23;;;2.90;99.90;;;;;;5047150;28;20200;-70
2021/12/05 13:01:17;;;;;;;30.60;20.97;;;2.90;99.90;;;;;;5050448;28;20555;-70
2021/12/05 13:04:27;;;;;;;37.67;22.30;;;2.90;99.90;;;;;;5050985;28;20196;-70
2021/12/05 13:10:04;;;;;;;32.47;22.57;;;2.80;99.90;;;;;;5019391;28;20205;-69
2021/12/05 13:12:33;;;;;;;32.77;21.20;;;2.90;99.90;;;;;;5051227;28;20207;-70
2021/12/05 13:15:03;;;;;;;29.40;21.60;;;2.90;99.90;;;;;;5050624;28;20228;-70
2021/12/05 13:17:42;;;;;;;32.00;20.97;;;2.90;99.90;;;;;;5050548;28;20207;-70
2021/12/05 13:20:11;;;;;;;32.27;21.30;;;2.90;99.90;;;;;;5050422;28;20249;-70
2021/12/05 13:22:59;;;;;;;28.90;20.03;;;2.90;99.90;;;;;;5050489;28;20238;-72
2021/12/05 13:25:27;;;;;;;31.10;21.30;;;2.90;99.90;;;;;;5050695;28;20203;-70
2021/12/05 13:27:54;;;;;;;29.43;20.87;;;2.80;99.90;;;;;;5050429;28;20204;-70
2021/12/05 13:30:30;;;;;;;33.20;21.07;;;2.90;99.90;;;;;;5050191;28;20291;-70
2021/12/05 13:33:20;;;;;;;28.10;18.77;;;2.90;99.90;;;;;;5050472;28;20192;-70
2021/12/05 13:35:47;;;;;;;26.87;19.33;;;2.90;99.90;;;;;;5050373;28;20232;-70
2021/12/05 13:38:34;;;;;;;25.30;17.90;;;2.80;99.90;;;;;;5050295;28;20219;-70
2021/12/05 13:41:14;;;;;;;28.07;19.77;;;2.80;99.90;;;;;;5050266;28;20273;-69
2021/12/05 13:43:41;;;;;;;31.17;21.57;;;2.80;99.90;;;;;;5050459;28;20246;-70
2021/12/05 13:46:30;;;;;;;29.13;21.13;;;2.80;99.90;;;;;;5050203;28;20218;-70
2021/12/05 13:48:59;;;;;;;31.63;22.13;;;2.80;99.90;;;;;;5050326;28;20210;-70
2021/12/05 13:51:26;;;;;;;34.27;21.37;;;2.80;99.90;;;;;;5049727;28;20641;-70
2021/12/05 13:53:59;;;;;;;32.87;22.00;;;2.80;99.90;;;;;;5049765;28;20675;-70
2021/12/05 13:56:27;;;;;;;32.70;22.13;;;2.90;99.90;;;;;;5049871;28;20454;-70
2021/12/05 13:58:59;;;;;;;31.00;22.37;;;2.90;99.90;;;;;;5049830;28;20703;-71
2021/12/05 14:01:28;;;;;;;35.63;23.80;;;2.90;99.90;;;;;;5049936;28;20192;-70
2021/12/05 14:04:08;;;;;;;32.70;22.70;;;2.90;99.90;;;;;;5049895;28;20208;-70
2021/12/05 14:06:49;;;;;;;34.07;23.13;;;2.90;99.90;;;;;;5050080;28;20204;-70
2021/12/05 14:09:19;;;;;;;34.00;23.27;;;2.90;99.90;;;;;;5049721;28;20197;-70
2021/12/05 14:11:50;;;;;;;33.87;23.83;;;2.90;99.90;;;;;;5049558;28;20662;-70
2021/12/05 14:14:19;;;;;;;35.60;23.03;;;2.90;99.90;;;;;;5049645;28;20195;-70
2021/12/05 14:16:49;;;;;;;36.40;24.77;;;2.90;99.90;;;;;;5049720;28;20247;-70
2021/12/05 14:19:19;;;;;;;37.37;25.67;;;2.90;99.90;;;;;;5049289;28;20456;-70
2021/12/05 14:21:47;;;;;;;36.60;25.07;;;2.90;99.90;;;;;;5049367;28;20290;-70
2021/12/05 14:24:16;;;;;;;39.60;25.80;;;2.90;99.90;;;;;;5049255;28;20662;-70
2021/12/05 14:26:43;;;;;;;40.33;24.53;;;2.90;99.90;;;;;;5046594;28;20212;-70
2021/12/05 14:29:12;;;;;;;39.30;25.00;;;2.90;99.90;;;;;;5048310;28;20230;-70
2021/12/05 14:31:43;;;;;;;35.67;24.20;;;2.80;99.90;;;;;;5049223;28;20203;-70
2021/12/05 14:34:13;;;;;;;39.00;24.97;;;2.80;99.90;;;;;;5048996;28;20192;-70
2021/12/05 14:36:44;;;;;;;37.53;23.70;;;2.80;99.90;;;;;;5049006;28;20633;-70
2021/12/05 14:39:23;;;;;;;38.10;24.13;;;2.80;99.90;;;;;;5048872;28;20207;-70
2021/12/05 14:41:53;;;;;;;32.83;21.30;;;2.70;99.90;;;;;;5048743;28;20620;-70
2021/12/05 14:44:21;;;;;;;33.70;21.47;;;2.70;99.90;;;;;;5048697;28;20203;-70
2021/12/05 14:46:51;;;;;;;32.00;21.13;;;2.70;99.90;;;;;;5049079;28;20215;-70
2021/12/05 14:49:20;;;;;;;35.63;22.83;;;2.70;99.90;;;;;;5048836;28;20205;-70
2021/12/05 14:51:49;;;;;;;33.40;21.87;;;2.70;99.90;;;;;;5048667;28;20244;-70
2021/12/05 14:54:22;;;;;;;30.90;20.40;;;2.70;99.90;;;;;;5048692;28;20215;-70
2021/12/05 14:56:49;;;;;;;27.53;19.33;;;2.70;99.90;;;;;;5048516;28;20236;-70
2021/12/05 14:59:17;;;;;;;29.23;19.83;;;2.70;99.90;;;;;;5048904;28;20207;-70
2021/12/05 15:01:47;;;;;;;31.30;21.13;;;2.70;99.90;;;;;;5048440;28;20215;-70
2021/12/05 15:04:19;;;;;;;30.37;20.63;;;2.70;99.90;;;;;;5048405;28;20674;-70
2021/12/05 15:06:48;;;;;;;32.70;21.30;;;2.70;99.90;;;;;;5048753;28;20813;-70
2021/12/05 15:09:22;;;;;;;29.77;21.27;;;2.70;99.90;;;;;;5048210;28;20262;-70
2021/12/05 15:11:55;;;;;;;32.87;22.23;;;2.70;99.90;;;;;;5048718;28;20895;-70
2021/12/05 15:14:23;;;;;;;31.33;20.47;;;2.60;99.90;;;;;;5048407;28;20940;-70
2021/12/05 15:16:55;;;;;;;32.23;21.93;;;2.70;99.90;;;;;;5048531;28;20239;-70
2021/12/05 15:19:21;;;;;;;29.13;20.40;;;2.60;99.90;;;;;;5048354;28;20224;-70
2021/12/05 15:21:50;;;;;;;30.73;21.10;;;2.60;99.90;;;;;;5048022;28;20228;-70
2021/12/05 15:24:20;;;;;;;33.77;21.43;;;2.60;99.90;;;;;;5048299;28;20204;-70
2021/12/05 15:26:47;;;;;;;32.30;21.40;;;2.70;99.90;;;;;;5048225;28;20212;-70
2021/12/05 15:29:14;;;;;;;30.77;21.67;;;2.70;99.90;;;;;;5048353;28;20220;-70
2021/12/05 15:31:43;;;;;;;33.60;21.93;;;2.70;99.90;;;;;;5048413;28;20207;-70
2021/12/05 15:34:25;;;;;;;36.00;22.63;;;2.60;99.90;;;;;;5048088;28;20239;-70
2021/12/05 15:36:53;;;;;;;32.50;22.27;;;2.60;99.90;;;;;;5048277;28;20340;-70
2021/12/05 15:39:23;;;;;;;30.37;21.10;;;2.70;99.90;;;;;;5047833;28;20279;-70
2021/12/05 15:41:53;;;;;;;32.43;21.50;;;2.70;99.90;;;;;;5048074;28;20253;-70
2021/12/05 15:44:28;;;;;;;31.23;20.97;;;2.70;99.90;;;;;;5047990;28;20208;-70
2021/12/05 15:47:08;;;;;;;32.23;21.87;;;2.70;99.90;;;;;;5048081;28;20238;-70
2021/12/05 15:49:59;;;;;;;32.87;21.53;;;2.70;99.90;;;;;;5048227;28;20192;-70
2021/12/05 15:52:31;;;;;;;32.50;21.87;;;2.70;99.90;;;;;;5043906;28;20263;-70
2021/12/05 15:54:57;;;;;;;34.07;21.97;;;2.70;99.90;;;;;;5047826;28;20254;-70
2021/12/05 15:57:31;;;;;;;32.87;22.00;;;2.70;99.90;;;;;;5047617;28;20285;-70
2021/12/05 16:00:00;;;;;;;33.27;22.77;;;2.60;99.90;;;;;;5047930;28;20240;-70
2021/12/05 16:02:28;;;;;;;34.70;22.17;;;2.50;99.90;;;;;;5047913;28;20620;-70
2021/12/05 16:04:56;;;;;;;32.13;21.93;;;2.60;99.90;;;;;;5047811;28;20211;-70
2021/12/05 16:07:29;;;;;;;35.53;22.17;;;2.60;99.90;;;;;;5047624;28;20202;-70
2021/12/05 16:10:10;;;;;;;34.90;21.87;;;2.60;99.90;;;;;;5047563;28;20682;-70
2021/12/05 16:12:40;;;;;;;33.53;22.93;;;2.60;99.90;;;;;;5047970;28;20263;-70
2021/12/05 16:15:07;;;;;;;36.63;22.57;;;2.60;99.90;;;;;;5047717;28;20208;-70
2021/12/05 16:17:34;;;;;;;36.70;23.63;;;2.60;99.90;;;;;;5047808;28;20239;-70
2021/12/05 16:20:08;;;;;;;36.00;23.67;;;2.60;99.90;;;;;;5047395;28;20232;-70
2021/12/05 16:23:11;;;;;;;34.77;22.43;;;2.50;99.90;;;;;;5047501;28;20750;-70
2021/12/05 16:25:43;;;;;;;35.17;23.17;;;2.50;99.90;;;;;;5047799;28;20200;-70
2021/12/05 16:28:13;;;;;;;37.67;23.60;;;2.50;99.90;;;;;;5047588;28;20246;-70
2021/12/05 16:30:44;;;;;;;36.37;23.73;;;2.50;99.90;;;;;;5047595;28;20638;-70
2021/12/05 16:33:13;;;;;;;37.30;24.77;;;2.60;99.90;;;;;;5047847;28;20196;-70
2021/12/05 16:35:43;;;;;;;38.73;24.43;;;2.60;99.90;;;;;;5050291;28;20232;-70
2021/12/05 16:38:22;;;;;;;37.93;24.20;;;2.60;99.90;;;;;;5031246;28;20216;-70
2021/12/05 16:41:20;;;;;;;39.03;25.63;;;2.60;99.90;;;;;;5031392;28;20212;-70
2021/12/05 16:43:53;;;;;;;36.80;23.97;;;2.60;99.90;;;;;;5029515;28;20200;-70
2021/12/05 16:46:23;;;;;;;34.60;22.90;;;2.60;99.90;;;;;;5031473;28;20193;-70
2021/12/05 16:48:50;;;;;;;37.03;22.87;;;2.60;99.90;;;;;;5031392;28;20201;-70
2021/12/05 16:51:22;;;;;;;35.83;22.40;;;2.60;99.90;;;;;;5030953;28;20571;-70
2021/12/05 16:53:51;;;;;;;34.10;22.50;;;2.60;99.90;;;;;;5031166;28;20247;-70
2021/12/05 16:56:40;;;;;;;36.87;22.30;;;2.50;99.90;;;;;;5031100;28;20241;-70